Terminal Aerodrome Forecast
Issued by NWS

Home | Current Version | Previous Version | Text Only | Print | Product List | Glossary On
Versions: 1 2 3 4 5 6 7 8 9 10 11 12 13 14 15 16 17
000
FTUS42 KGSP 271510 AAB
TAFAND
TAF AMD
KAND 271510Z 2715/2812 VRB03KT P6SM SCT015
      TEMPO 2715/2719 BKN015
     FM271900 22006KT P6SM SCT030
     FM272200 23006KT P6SM SCT040
      TEMPO 2722/2802 4SM -TSRA OVC025CB
     FM281000 VRB02KT 5SM BR SCT070=

USA.gov is the U.S. government's official web portal to all federal, state and local government web resources and services.